x

Big Carlos Pass, Fl (bgcf1) Weather Station

9:54pm - Wed 26th Aug 2015 All times are EDT. -4 hours from GMT.

  • Wind
    9mph, 11mph gusts
  • Air Temp 78°f
  • Sea Pressure 1015.6mb
  • Big Carlos Pass, Fl
  • Big Carlos Pass, Fl

More Historic Weather Station data

Upgrade to MSW Pro to gain access to the past 30 days of data for over 8000 Wavebouys and Weather Stations around the globe.

Join Pro

Comparision Forecast

View Surf forecast
   
Wed 08/26 9:54pm 9 11 mph 1015.6mb 78f
9:48pm 3 8 mph 1015.7mb 78f
8:54pm 11 18 mph 1015.4mb 81f
8:48pm 8 13 mph 1015.4mb 80f
7:54pm 14 20 mph 1014.2mb 80f
7:48pm 16 22 mph 1013.9mb 80f
6:54pm 8 9 mph 1013.1mb 87f
6:48pm 8 9 mph 1013mb 87f
5:54pm 5 6 mph 1013mb 89f
5:48pm 5 6 mph 1012.8mb 89f
4:54pm 2 5 mph 1013.4mb 88f
4:48pm 3 6 mph 1013.4mb 87f
3:54pm 7 8 mph 1013.2mb 85f
3:48pm 7 11 mph 1013.3mb 85f
2:54pm 6 9 mph 1014.3mb 87f
2:48pm 6 8 mph 1014.3mb 87f
1:54pm 6 8 mph 1014.9mb 87f
1:48pm 6 9 mph 1015mb 87f
12:54pm 7 9 mph 1015.5mb 87f
12:48pm 6 8 mph 1015.5mb 87f
11:54am 5 6 mph 1015.4mb 87f
11:48am 6 7 mph 1015.4mb 87f
10:54am 1 2 mph 1015.1mb 87f
10:48am 1 2 mph 1015mb 88f
9:54am 3 5 mph 1015mb 85f
9:48am 2 3 mph 1015mb 86f
8:54am 5 6 mph 1014.5mb 84f
8:48am 3 5 mph 1014.5mb 84f
7:54am 6
mph
1014.2mb 81f
7:48am 5 6 mph 1014.2mb 81f
6:54am 6 7 mph 1013.9mb 81f
6:48am 5 7 mph 1013.7mb 81f
5:54am 6 7 mph 1013.4mb 82f
5:48am 6 7 mph 1013.4mb 82f
4:54am 5 7 mph 1012.8mb 82f
4:48am 6 7 mph 1012.8mb 82f
3:54am 1 2 mph 1013.2mb 83f
3:48am 1 2 mph 1013.3mb 83f
2:54am 1 2 mph 1013.4mb 83f
2:48am 1 2 mph 1013.5mb 83f
1:54am 2 3 mph 1014.3mb 82f
1:48am 3 5 mph 1014.5mb 82f
12:54am 6 8 mph 1014.5mb 83f
12:48am 6 7 mph 1014.4mb 83f
Tue 08/25 11:54pm 3 5 mph 1014mb 83f
11:48pm 3
mph
1014mb 83f
10:54pm  -  3 mph 1013.6mb 82f
10:48pm 3
mph
1013.6mb 82f
9:54pm 3 5 mph 1014.3mb 82f
9:48pm 6 7 mph 1014.3mb 82f
8:54pm 3
mph
1014mb 80f
8:48pm 5 6 mph 1013.9mb 80f
7:54pm 16 22 mph 1013.4mb 80f
7:48pm 18 23 mph 1013.5mb 81f
6:54pm 5 6 mph 1012.7mb 90f
6:48pm 6 7 mph 1012.6mb 89f
5:54pm 7 8 mph 1012.5mb 89f
5:48pm 7 8 mph 1012.5mb 89f
3:54pm 2 5 mph 1012.8mb 89f
3:48pm 3 6 mph 1013mb 91f
2:54pm 6 9 mph 1013.4mb 86f
2:48pm 6 9 mph 1013.4mb 86f
1:54pm 7 8 mph 1013.9mb 88f
1:48pm 7 8 mph 1013.9mb 88f
12:54pm 5 7 mph 1014.6mb 87f
12:48pm 5 6 mph 1014.5mb 88f
11:54am 6 8 mph 1015.2mb 87f
11:48am 6 7 mph 1015.2mb 87f
10:54am 3 5 mph 1015mb 87f
10:48am 2 5 mph 1015mb 87f
9:54am 5 6 mph 1014.8mb 86f
9:48am 5 6 mph 1014.6mb 86f
8:54am 6 8 mph 1014.5mb 84f
8:48am 6 7 mph 1014.5mb 84f
7:54am 5 6 mph 1014mb 81f
7:48am 5 6 mph 1013.9mb 81f
6:54am 3 5 mph 1013.4mb 81f
6:48am 2 3 mph 1013.4mb 80f
5:54am 2 3 mph 1013mb 81f
5:48am 2 3 mph 1013.1mb 81f
4:54am 2 3 mph 1012.8mb 81f
4:48am 2 3 mph 1012.8mb 81f
3:54am 1 3 mph 1012.8mb 82f
3:48am 2 5 mph 1012.8mb 82f
2:54am 3 5 mph 1012.9mb 81f
2:48am 3 6 mph 1012.9mb 81f
1:54am 6 9 mph 1013.2mb 81f
1:48am 7 10 mph 1013.2mb 81f
12:54am 6 8 mph 1013.7mb 82f
12:48am 6 8 mph 1013.8mb 82f
Mon 08/24 11:54pm 10 14 mph 1014.6mb 80f
11:48pm 10 14 mph 1014.6mb 80f
10:54pm 8 11 mph 1014.6mb 80f
10:48pm 9 13 mph 1014.5mb 80f
9:54pm 16 23 mph 1014.3mb 81f
9:48pm 16 21 mph 1014.1mb 83f
8:54pm 8 11 mph 1012.5mb 88f
8:48pm 9 13 mph 1012.5mb 89f
7:54pm 7 11 mph 1011.9mb 89f
7:48pm 7 11 mph 1011.7mb 89f
6:54pm 3 6 mph 1011.6mb 90f
6:48pm 2 5 mph 1011.7mb 90f
5:54pm 20 25 mph 1012.6mb 85f
5:48pm 17 21 mph 1012.6mb 84f
4:54pm 8 11 mph 1012.1mb 91f
4:48pm 9 14 mph 1012.2mb 90f
3:54pm 11 14 mph 1012.8mb 89f
3:48pm 13 15 mph 1012.8mb 89f
2:54pm 11 13 mph 1013mb 89f
2:48pm 10 13 mph 1012.9mb 89f
1:54pm 9 10 mph 1013.8mb 89f
1:48pm 8 10 mph 1013.9mb 89f
12:54pm 8 10 mph 1015mb 88f
12:48pm 9 11 mph 1015mb 88f
11:54am 6
mph
1015.6mb 88f
11:48am 5 6 mph 1015.6mb 88f
10:54am  -  2 mph 1015.6mb 89f
10:48am 3 5 mph 1015.6mb 88f
9:54am 2 5 mph 1015.4mb 88f
9:48am 3 5 mph 1015.4mb 88f
8:54am  -  2 mph 1015.2mb 88f
8:48am 2 5 mph 1015.1mb 86f
7:54am 6 7 mph 1014.8mb 83f
7:48am 6 7 mph 1014.7mb 83f
6:54am 2 3 mph 1014mb 83f
6:48am 2 5 mph 1013.9mb 83f
5:54am 6
mph
1013.7mb 82f
5:48am 5 7 mph 1013.7mb 83f
4:54am 5 6 mph 1013.4mb 83f
4:48am 3 5 mph 1013.4mb 83f
3:54am 3 6 mph 1013.3mb 83f
3:48am 2 3 mph 1013.4mb 83f
2:54am 3 5 mph 1013.4mb 83f
2:48am 3 5 mph 1013.6mb 83f